Bushey, United Kingdom
Current Conditions -  °F | °C
As of 5:50 PM on Monday 26 Jan 2015 (Local Time) from EGWU Reporting Station
Broken Clouds Broken Clouds  
Wind Chill: 40°   Ceiling: 21000
Heat Index: 43°   Visibility: 6mi
Dew Point: 34°   Wind: 5mph
Humidity: 70%   Direction: 310°NW
Pressure: 30.27"   Gusts: NA
Location:  51.64°N, 0.36°W
Report Text: EGWU 261750Z 31004KT 9999 SCT045 BKN210 06/01 Q1025 BLU NOSIG
Loading
Personal Weather Stations






























Interactive Weather Map New forecast layout! Learn more

10-Day Weather Forecast

Advertisements
Track Severe Weather on mobile